DLH2AB EDDH-EDDN
Flight info
| Callsign | DLH2AB |
|---|---|
| Flight time | 1h 24m |
| Altitude | 35000 |
| Route | AMLUH2G AMLUH M852 DENIX DCT ZUCKA DCT GALMA M736 TABAT Q244 NIBIL/N0408F230 Q244 PIVIR PIVIR1V |
| Aircraft | A320/M-SDE3FGHIRWY/LB1 |
Departure
| Time | 2026-04-23 08:35 |
|---|---|
| Airport | Hamburg Helmut Schmidt Airport (EDDH) |
Arrival
| Time | 2026-04-23 09:59 |
|---|---|
| Airport | Nuremberg Airport (EDDN) |
| Time | Latitude | Longitude | Altitude | Speed | Heading |
|---|---|---|---|---|---|
| 2026-04-23 08:14 | 53.63196 | 10.00385 | 46 ft | 0 kts | 85° |
| 2026-04-23 08:29 | 53.63195 | 10.00381 | 51 ft | 2 kts | 86° |
| 2026-04-23 08:29 | 53.63194 | 10.00338 | 51 ft | 4 kts | 88° |
| 2026-04-23 08:29 | 53.63194 | 10.00292 | 51 ft | 4 kts | 94° |
| 2026-04-23 08:30 | 53.63198 | 10.00248 | 48 ft | 4 kts | 109° |
| 2026-04-23 08:30 | 53.63210 | 10.00215 | 48 ft | 4 kts | 164° |
| 2026-04-23 08:30 | 53.63214 | 10.00213 | 47 ft | 0 kts | 176° |
| 2026-04-23 08:32 | 53.63211 | 10.00213 | 48 ft | 3 kts | 175° |
| 2026-04-23 08:32 | 53.63167 | 10.00221 | 51 ft | 8 kts | 174° |
| 2026-04-23 08:32 | 53.63104 | 10.00230 | 51 ft | 10 kts | 175° |
| 2026-04-23 08:33 | 53.63026 | 10.00183 | 51 ft | 15 kts | 213° |
| 2026-04-23 08:33 | 53.62945 | 10.00066 | 51 ft | 16 kts | 240° |
| 2026-04-23 08:33 | 53.62889 | 9.99895 | 49 ft | 17 kts | 241° |
| 2026-04-23 08:33 | 53.62881 | 9.99730 | 52 ft | 13 kts | 339° |
| 2026-04-23 08:34 | 53.62951 | 9.99672 | 52 ft | 9 kts | 327° |
| 2026-04-23 08:34 | 53.62995 | 9.99633 | 52 ft | 32 kts | 332° |
| 2026-04-23 08:34 | 53.63408 | 9.99263 | 52 ft | 99 kts | 331° |
| 2026-04-23 08:34 | 53.64177 | 9.98598 | 99 ft | 144 kts | 332° |
| 2026-04-23 08:35 | 53.65073 | 9.97838 | 732 ft | 146 kts | 334° |
| 2026-04-23 08:35 | 53.66006 | 9.97070 | 1410 ft | 152 kts | 334° |
| 2026-04-23 08:35 | 53.67016 | 9.96211 | 1800 ft | 173 kts | 331° |
| 2026-04-23 08:35 | 53.68151 | 9.95228 | 2206 ft | 193 kts | 332° |
| 2026-04-23 08:36 | 53.69470 | 9.94680 | 3042 ft | 199 kts | 356° |
| 2026-04-23 08:36 | 53.70849 | 9.94682 | 3978 ft | 198 kts | 357° |
| 2026-04-23 08:36 | 53.72232 | 9.94912 | 4814 ft | 206 kts | 18° |
| 2026-04-23 08:36 | 53.73320 | 9.96572 | 5604 ft | 225 kts | 56° |
| 2026-04-23 08:37 | 53.73897 | 9.99081 | 6429 ft | 232 kts | 68° |
| 2026-04-23 08:37 | 53.74190 | 10.01797 | 7208 ft | 242 kts | 87° |
| 2026-04-23 08:37 | 53.73856 | 10.04638 | 7913 ft | 258 kts | 107° |
| 2026-04-23 08:37 | 53.72959 | 10.07449 | 8288 ft | 285 kts | 118° |
| 2026-04-23 08:38 | 53.71920 | 10.10417 | 8893 ft | 298 kts | 117° |
| 2026-04-23 08:38 | 53.70883 | 10.13472 | 9739 ft | 302 kts | 116° |
| 2026-04-23 08:38 | 53.69793 | 10.16535 | 10587 ft | 307 kts | 123° |
| 2026-04-23 08:38 | 53.68319 | 10.19281 | 11041 ft | 329 kts | 138° |
| 2026-04-23 08:39 | 53.66315 | 10.21421 | 11296 ft | 355 kts | 155° |
| 2026-04-23 08:39 | 53.63892 | 10.22690 | 11640 ft | 372 kts | 166° |
| 2026-04-23 08:39 | 53.61363 | 10.23796 | 12293 ft | 379 kts | 165° |
| 2026-04-23 08:39 | 53.58823 | 10.25023 | 13048 ft | 382 kts | 162° |
| 2026-04-23 08:40 | 53.56285 | 10.26416 | 13815 ft | 385 kts | 161° |
| 2026-04-23 08:40 | 53.53745 | 10.27908 | 14498 ft | 388 kts | 160° |
| 2026-04-23 08:40 | 53.51190 | 10.29452 | 15162 ft | 391 kts | 159° |
| 2026-04-23 08:40 | 53.48622 | 10.31001 | 15833 ft | 394 kts | 159° |
| 2026-04-23 08:41 | 53.46026 | 10.32536 | 16490 ft | 397 kts | 160° |
| 2026-04-23 08:41 | 53.43411 | 10.34056 | 17158 ft | 399 kts | 160° |
| 2026-04-23 08:41 | 53.40773 | 10.35572 | 17765 ft | 403 kts | 160° |
| 2026-04-23 08:41 | 53.38141 | 10.37074 | 18358 ft | 406 kts | 160° |
| 2026-04-23 08:42 | 53.35452 | 10.38603 | 18899 ft | 410 kts | 160° |
| 2026-04-23 08:42 | 53.32743 | 10.40137 | 19437 ft | 412 kts | 159° |
| 2026-04-23 08:42 | 53.30020 | 10.41677 | 19978 ft | 414 kts | 159° |
| 2026-04-23 08:42 | 53.27284 | 10.43225 | 20543 ft | 415 kts | 159° |
| 2026-04-23 08:43 | 53.24542 | 10.44781 | 21097 ft | 417 kts | 159° |
| 2026-04-23 08:43 | 53.21753 | 10.46364 | 21630 ft | 419 kts | 159° |
| 2026-04-23 08:43 | 53.19030 | 10.47912 | 22141 ft | 421 kts | 159° |
| 2026-04-23 08:43 | 53.16254 | 10.49493 | 22665 ft | 422 kts | 159° |
| 2026-04-23 08:44 | 53.13464 | 10.51077 | 23173 ft | 424 kts | 159° |
| 2026-04-23 08:44 | 53.10668 | 10.52655 | 23682 ft | 426 kts | 159° |
| 2026-04-23 08:44 | 53.07843 | 10.54242 | 24127 ft | 428 kts | 158° |
| 2026-04-23 08:44 | 53.05016 | 10.55830 | 24516 ft | 431 kts | 158° |
| 2026-04-23 08:45 | 53.02170 | 10.57427 | 24901 ft | 433 kts | 158° |
| 2026-04-23 08:45 | 52.99307 | 10.59029 | 25281 ft | 435 kts | 158° |
| 2026-04-23 08:45 | 52.96430 | 10.60641 | 25641 ft | 437 kts | 158° |
| 2026-04-23 08:45 | 52.93542 | 10.62255 | 26009 ft | 439 kts | 158° |
| 2026-04-23 08:46 | 52.90639 | 10.63878 | 26379 ft | 442 kts | 158° |
| 2026-04-23 08:46 | 52.87716 | 10.65513 | 26744 ft | 444 kts | 158° |
| 2026-04-23 08:46 | 52.84779 | 10.67155 | 27069 ft | 448 kts | 158° |
| 2026-04-23 08:46 | 52.81817 | 10.68805 | 27388 ft | 451 kts | 158° |
| 2026-04-23 08:47 | 52.78832 | 10.70459 | 27715 ft | 454 kts | 158° |
| 2026-04-23 08:47 | 52.75829 | 10.72120 | 28050 ft | 456 kts | 157° |
| 2026-04-23 08:47 | 52.72818 | 10.73786 | 28391 ft | 457 kts | 157° |
| 2026-04-23 08:47 | 52.69796 | 10.75457 | 28710 ft | 459 kts | 157° |
| 2026-04-23 08:48 | 52.66759 | 10.77134 | 29027 ft | 461 kts | 157° |
| 2026-04-23 08:48 | 52.63709 | 10.78815 | 29338 ft | 463 kts | 157° |
| 2026-04-23 08:48 | 52.60649 | 10.80503 | 29640 ft | 465 kts | 157° |
| 2026-04-23 08:48 | 52.57571 | 10.82199 | 29934 ft | 467 kts | 157° |
| 2026-04-23 08:49 | 52.54487 | 10.83889 | 30348 ft | 466 kts | 157° |
| 2026-04-23 08:49 | 52.51415 | 10.85567 | 30733 ft | 465 kts | 157° |
| 2026-04-23 08:49 | 52.48348 | 10.87239 | 31144 ft | 463 kts | 157° |
| 2026-04-23 08:49 | 52.45295 | 10.88904 | 31555 ft | 461 kts | 156° |
| 2026-04-23 08:50 | 52.42260 | 10.90559 | 31938 ft | 459 kts | 156° |
| 2026-04-23 08:50 | 52.39231 | 10.92206 | 32328 ft | 458 kts | 156° |
| 2026-04-23 08:50 | 52.36214 | 10.93846 | 32706 ft | 456 kts | 156° |
| 2026-04-23 08:50 | 52.33202 | 10.95486 | 33098 ft | 455 kts | 156° |
| 2026-04-23 08:51 | 52.30193 | 10.97123 | 33385 ft | 456 kts | 156° |
| 2026-04-23 08:51 | 52.27176 | 10.98764 | 33694 ft | 457 kts | 156° |
| 2026-04-23 08:51 | 52.24166 | 11.00398 | 34066 ft | 456 kts | 156° |
| 2026-04-23 08:51 | 52.21166 | 11.02017 | 34467 ft | 453 kts | 156° |
| 2026-04-23 08:52 | 52.18178 | 11.03625 | 34785 ft | 452 kts | 156° |
| 2026-04-23 08:52 | 52.15191 | 11.05232 | 35105 ft | 451 kts | 156° |
| 2026-04-23 08:52 | 52.12217 | 11.06830 | 35294 ft | 451 kts | 156° |
| 2026-04-23 08:52 | 52.09228 | 11.08435 | 35336 ft | 451 kts | 156° |
| 2026-04-23 08:53 | 52.03260 | 11.11632 | 35334 ft | 451 kts | 156° |
| 2026-04-23 08:53 | 51.97343 | 11.14795 | 35334 ft | 450 kts | 156° |
| 2026-04-23 08:54 | 51.91401 | 11.17969 | 35331 ft | 450 kts | 156° |
| 2026-04-23 08:54 | 51.85452 | 11.21131 | 35328 ft | 450 kts | 156° |
| 2026-04-23 08:55 | 51.79511 | 11.24281 | 35336 ft | 449 kts | 156° |
| 2026-04-23 08:55 | 51.73558 | 11.27428 | 35324 ft | 451 kts | 156° |
| 2026-04-23 08:56 | 51.67594 | 11.30579 | 35312 ft | 451 kts | 156° |
| 2026-04-23 08:56 | 51.61626 | 11.33716 | 35296 ft | 451 kts | 156° |
| 2026-04-23 08:57 | 51.55656 | 11.36855 | 35304 ft | 452 kts | 156° |
| 2026-04-23 08:57 | 51.49675 | 11.39972 | 35298 ft | 452 kts | 156° |
| 2026-04-23 08:58 | 51.43696 | 11.43087 | 35322 ft | 452 kts | 156° |
| 2026-04-23 08:58 | 51.37533 | 11.45336 | 35309 ft | 462 kts | 171° |
| 2026-04-23 08:59 | 51.31107 | 11.45942 | 35307 ft | 463 kts | 171° |
| 2026-04-23 08:59 | 51.24685 | 11.46562 | 35315 ft | 462 kts | 171° |
| 2026-04-23 09:00 | 51.18256 | 11.47189 | 35330 ft | 463 kts | 171° |
| 2026-04-23 09:00 | 51.11824 | 11.47821 | 35314 ft | 464 kts | 171° |
| 2026-04-23 09:01 | 51.05410 | 11.48435 | 35312 ft | 465 kts | 171° |
| 2026-04-23 09:01 | 50.98949 | 11.49049 | 35316 ft | 465 kts | 171° |
| 2026-04-23 09:02 | 50.92482 | 11.49667 | 35319 ft | 466 kts | 171° |
| 2026-04-23 09:02 | 50.86015 | 11.50284 | 35320 ft | 466 kts | 171° |
| 2026-04-23 09:03 | 50.79548 | 11.50895 | 35322 ft | 466 kts | 171° |
| 2026-04-23 09:03 | 50.73076 | 11.51508 | 35333 ft | 465 kts | 171° |
| 2026-04-23 09:04 | 50.66615 | 11.52120 | 35335 ft | 465 kts | 171° |
| 2026-04-23 09:04 | 50.60162 | 11.52735 | 35334 ft | 464 kts | 171° |
| 2026-04-23 09:05 | 50.53725 | 11.53407 | 35329 ft | 463 kts | 169° |
| 2026-04-23 09:05 | 50.47355 | 11.54636 | 35327 ft | 460 kts | 166° |
| 2026-04-23 09:06 | 50.41069 | 11.56118 | 35323 ft | 460 kts | 166° |
| 2026-04-23 09:06 | 50.34727 | 11.57520 | 35324 ft | 461 kts | 167° |
| 2026-04-23 09:07 | 50.28369 | 11.58807 | 35335 ft | 461 kts | 167° |
| 2026-04-23 09:07 | 50.21990 | 11.60061 | 35328 ft | 461 kts | 167° |
| 2026-04-23 09:08 | 50.16655 | 11.61137 | 35327 ft | 461 kts | 167° |
| 2026-04-23 09:08 | 50.11284 | 11.62222 | 35327 ft | 461 kts | 167° |
| 2026-04-23 09:39 | 50.06131 | 11.62914 | 34425 ft | 463 kts | 175° |
| 2026-04-23 09:39 | 50.02864 | 11.62656 | 32549 ft | 477 kts | 179° |
| 2026-04-23 09:39 | 49.99526 | 11.62271 | 30797 ft | 486 kts | 181° |
| 2026-04-23 09:39 | 49.96146 | 11.61393 | 28878 ft | 496 kts | 191° |
| 2026-04-23 09:40 | 49.92857 | 11.59685 | 27234 ft | 498 kts | 200° |
| 2026-04-23 09:40 | 49.89707 | 11.57483 | 25980 ft | 490 kts | 202° |
| 2026-04-23 09:40 | 49.86671 | 11.55378 | 25387 ft | 467 kts | 202° |
| 2026-04-23 09:40 | 49.83751 | 11.53381 | 24688 ft | 451 kts | 202° |
| 2026-04-23 09:41 | 49.80931 | 11.51454 | 24015 ft | 436 kts | 202° |
| 2026-04-23 09:41 | 49.78205 | 11.49580 | 23304 ft | 427 kts | 202° |
| 2026-04-23 09:41 | 49.75492 | 11.47702 | 22705 ft | 425 kts | 203° |
| 2026-04-23 09:41 | 49.72799 | 11.45833 | 22094 ft | 422 kts | 203° |
| 2026-04-23 09:42 | 49.70123 | 11.43975 | 21532 ft | 422 kts | 203° |
| 2026-04-23 09:42 | 49.67455 | 11.42126 | 20966 ft | 419 kts | 203° |
| 2026-04-23 09:42 | 49.64819 | 11.40243 | 20359 ft | 417 kts | 208° |
| 2026-04-23 09:42 | 49.62451 | 11.37675 | 19772 ft | 416 kts | 223° |
| 2026-04-23 09:43 | 49.60566 | 11.34325 | 19186 ft | 412 kts | 238° |
| 2026-04-23 09:43 | 49.59282 | 11.30483 | 18641 ft | 406 kts | 252° |
| 2026-04-23 09:43 | 49.58612 | 11.26305 | 18046 ft | 399 kts | 266° |
| 2026-04-23 09:43 | 49.58538 | 11.22023 | 17510 ft | 400 kts | 275° |
| 2026-04-23 09:44 | 49.58587 | 11.17739 | 16966 ft | 399 kts | 274° |
| 2026-04-23 09:44 | 49.58917 | 11.13533 | 16425 ft | 393 kts | 283° |
| 2026-04-23 09:44 | 49.59657 | 11.09545 | 15887 ft | 384 kts | 298° |
| 2026-04-23 09:44 | 49.61076 | 11.06118 | 15359 ft | 375 kts | 315° |
| 2026-04-23 09:45 | 49.63093 | 11.03698 | 14915 ft | 364 kts | 336° |
| 2026-04-23 09:45 | 49.65499 | 11.02615 | 14694 ft | 360 kts | 356° |
| 2026-04-23 09:45 | 49.67992 | 11.02653 | 14473 ft | 359 kts | 4° |
| 2026-04-23 09:45 | 49.70481 | 11.02900 | 14246 ft | 358 kts | 7° |
| 2026-04-23 09:46 | 49.72870 | 11.03867 | 14008 ft | 356 kts | 24° |
| 2026-04-23 09:46 | 49.74929 | 11.05957 | 13769 ft | 356 kts | 42° |
| 2026-04-23 09:46 | 49.76435 | 11.08973 | 13529 ft | 358 kts | 60° |
| 2026-04-23 09:46 | 49.77207 | 11.12576 | 13286 ft | 361 kts | 79° |
| 2026-04-23 09:47 | 49.77145 | 11.16517 | 13048 ft | 366 kts | 99° |
| 2026-04-23 09:47 | 49.76253 | 11.20150 | 12815 ft | 371 kts | 118° |
| 2026-04-23 09:47 | 49.74589 | 11.23198 | 12585 ft | 375 kts | 137° |
| 2026-04-23 09:47 | 49.72540 | 11.25709 | 12349 ft | 375 kts | 140° |
| 2026-04-23 09:48 | 49.70478 | 11.28171 | 12114 ft | 375 kts | 140° |
| 2026-04-23 09:48 | 49.68415 | 11.30617 | 11893 ft | 373 kts | 140° |
| 2026-04-23 09:48 | 49.66354 | 11.33057 | 11681 ft | 373 kts | 140° |
| 2026-04-23 09:48 | 49.64296 | 11.35494 | 11459 ft | 373 kts | 140° |
| 2026-04-23 09:49 | 49.62240 | 11.37927 | 11236 ft | 371 kts | 140° |
| 2026-04-23 09:49 | 49.60200 | 11.40344 | 11004 ft | 369 kts | 140° |
| 2026-04-23 09:49 | 49.58286 | 11.42929 | 10785 ft | 361 kts | 129° |
| 2026-04-23 09:49 | 49.56853 | 11.45973 | 10569 ft | 343 kts | 116° |
| 2026-04-23 09:50 | 49.55939 | 11.49274 | 10387 ft | 327 kts | 103° |
| 2026-04-23 09:50 | 49.55498 | 11.52605 | 10334 ft | 308 kts | 95° |
| 2026-04-23 09:50 | 49.55177 | 11.55778 | 10338 ft | 293 kts | 95° |
| 2026-04-23 09:50 | 49.54847 | 11.58839 | 10340 ft | 288 kts | 98° |
| 2026-04-23 09:51 | 49.54055 | 11.61675 | 10260 ft | 294 kts | 124° |
| 2026-04-23 09:51 | 49.52498 | 11.63672 | 10061 ft | 302 kts | 151° |
| 2026-04-23 09:51 | 49.50424 | 11.64378 | 9398 ft | 314 kts | 184° |
| 2026-04-23 09:51 | 49.48298 | 11.63802 | 9022 ft | 306 kts | 196° |
| 2026-04-23 09:52 | 49.46445 | 11.62318 | 8385 ft | 299 kts | 224° |
| 2026-04-23 09:52 | 49.45254 | 11.59803 | 7728 ft | 289 kts | 252° |
| 2026-04-23 09:52 | 49.44940 | 11.56828 | 6985 ft | 281 kts | 279° |
| 2026-04-23 09:52 | 49.45222 | 11.53878 | 6316 ft | 277 kts | 283° |
| 2026-04-23 09:53 | 49.45518 | 11.51025 | 6059 ft | 260 kts | 282° |
| 2026-04-23 09:53 | 49.45787 | 11.48392 | 5935 ft | 240 kts | 283° |
| 2026-04-23 09:53 | 49.46035 | 11.45952 | 5804 ft | 224 kts | 283° |
| 2026-04-23 09:53 | 49.46272 | 11.43635 | 5576 ft | 217 kts | 283° |
| 2026-04-23 09:54 | 49.46508 | 11.41346 | 5228 ft | 217 kts | 283° |
| 2026-04-23 09:54 | 49.46744 | 11.39047 | 4824 ft | 218 kts | 283° |
| 2026-04-23 09:54 | 49.46975 | 11.36790 | 4499 ft | 215 kts | 282° |
| 2026-04-23 09:54 | 49.47205 | 11.34524 | 4193 ft | 209 kts | 281° |
| 2026-04-23 09:55 | 49.47421 | 11.32360 | 4007 ft | 201 kts | 282° |
| 2026-04-23 09:55 | 49.47628 | 11.30285 | 3790 ft | 190 kts | 281° |
| 2026-04-23 09:55 | 49.47823 | 11.28348 | 3541 ft | 182 kts | 281° |
| 2026-04-23 09:55 | 49.48013 | 11.26456 | 3286 ft | 173 kts | 280° |
| 2026-04-23 09:56 | 49.48190 | 11.24690 | 3110 ft | 165 kts | 281° |
| 2026-04-23 09:56 | 49.48364 | 11.22957 | 2857 ft | 162 kts | 281° |
| 2026-04-23 09:56 | 49.48531 | 11.21281 | 2652 ft | 154 kts | 281° |
| 2026-04-23 09:56 | 49.48690 | 11.19687 | 2430 ft | 147 kts | 280° |
| 2026-04-23 09:57 | 49.48837 | 11.18215 | 2243 ft | 135 kts | 280° |
| 2026-04-23 09:57 | 49.48978 | 11.16801 | 2051 ft | 132 kts | 281° |
| 2026-04-23 09:57 | 49.49116 | 11.15410 | 1868 ft | 132 kts | 280° |
| 2026-04-23 09:57 | 49.49247 | 11.14013 | 1681 ft | 135 kts | 279° |
| 2026-04-23 09:58 | 49.49343 | 11.13048 | 1584 ft | 133 kts | 279° |
| 2026-04-23 09:58 | 49.49484 | 11.11635 | 1369 ft | 136 kts | 279° |
| 2026-04-23 09:58 | 49.49630 | 11.10172 | 1150 ft | 140 kts | 279° |
| 2026-04-23 09:58 | 49.49775 | 11.08761 | 1042 ft | 126 kts | 279° |
| 2026-04-23 09:59 | 49.49884 | 11.07656 | 1026 ft | 78 kts | 278° |
| 2026-04-23 09:59 | 49.49931 | 11.07108 | 1024 ft | 28 kts | 277° |
| 2026-04-23 09:59 | 49.49874 | 11.07021 | 1022 ft | 9 kts | 149° |
| 2026-04-23 09:59 | 49.49829 | 11.07047 | 1021 ft | 5 kts | 159° |
| 2026-04-23 10:00 | 49.49811 | 11.07057 | 1021 ft | 0 kts | 159° |
| 2026-04-23 10:00 | 49.49772 | 11.07083 | 1021 ft | 14 kts | 149° |
| 2026-04-23 10:00 | 49.49728 | 11.07212 | 1022 ft | 12 kts | 131° |
| 2026-04-23 10:00 | 49.49659 | 11.07230 | 1021 ft | 8 kts | 172° |
| 2026-04-23 10:01 | 49.49636 | 11.07279 | 1025 ft | 5 kts | 100° |
| 2026-04-23 10:01 | 49.49632 | 11.07327 | 1025 ft | 6 kts | 97° |
| 2026-04-23 10:01 | 49.49625 | 11.07418 | 1025 ft | 12 kts | 97° |
| 2026-04-23 10:01 | 49.49609 | 11.07571 | 1024 ft | 15 kts | 101° |
| 2026-04-23 10:02 | 49.49593 | 11.07717 | 1027 ft | 13 kts | 95° |
| 2026-04-23 10:02 | 49.49552 | 11.07799 | 1025 ft | 10 kts | 174° |
| 2026-04-23 10:02 | 49.49522 | 11.07794 | 1024 ft | 0 kts | 192° |
| 2026-04-23 10:02 | 49.49518 | 11.07792 | 1025 ft | 0 kts | 193° |
| 2026-04-23 10:03 | 49.49517 | 11.07792 | 1025 ft | 0 kts | 192° |